createdAt,value
2023-05-14T00:01:08.053Z,18.40
2023-05-14T00:03:35.101Z,15.63
2023-05-14T00:06:01.932Z,15.70
2023-05-14T00:08:29.101Z,15.82
2023-05-14T00:10:56.015Z,17.90
2023-05-14T00:13:23.454Z,16.38
2023-05-14T00:15:50.324Z,14.60
2023-05-14T00:18:17.124Z,14.05
2023-05-14T00:20:43.941Z,15.23
2023-05-14T00:23:10.736Z,16.85
2023-05-14T00:25:37.516Z,16.08
2023-05-14T00:28:04.635Z,15.60
2023-05-14T00:30:31.429Z,16.95
2023-05-14T00:32:58.185Z,18.05
2023-05-14T00:35:24.941Z,15.93
2023-05-14T00:37:51.711Z,15.23
2023-05-14T00:40:18.517Z,17.67
2023-05-14T00:42:45.466Z,14.05
2023-05-14T00:45:12.212Z,18.50
2023-05-14T00:47:40.173Z,16.23
2023-05-14T00:50:07.456Z,14.32
2023-05-14T00:52:34.381Z,15.80
2023-05-14T00:55:03.969Z,17.60
2023-05-14T00:57:30.883Z,16.10
2023-05-14T00:59:58.908Z,17.90
2023-05-14T01:02:26.337Z,13.60
2023-05-14T01:04:53.912Z,20.50
2023-05-14T01:07:28.019Z,15.02
2023-05-14T01:10:13.679Z,17.15
2023-05-14T01:12:48.584Z,14.60
2023-05-14T01:15:23.765Z,17.13
2023-05-14T01:18:04.737Z,20.38
2023-05-14T01:20:31.534Z,14.75
2023-05-14T01:22:58.270Z,18.38
2023-05-14T01:25:26.037Z,17.33
2023-05-14T01:28:12.796Z,17.08
2023-05-14T01:30:51.592Z,22.05
2023-05-14T01:33:19.902Z,13.38
2023-05-14T01:35:46.765Z,13.65
2023-05-14T01:38:16.033Z,16.02
2023-05-14T01:40:44.143Z,18.88
2023-05-14T01:43:11.705Z,18.02
2023-05-14T01:45:38.507Z,15.73
2023-05-14T01:48:05.903Z,15.20
2023-05-14T01:50:32.802Z,18.40
2023-05-14T01:52:59.572Z,16.65
2023-05-14T01:55:26.451Z,17.48
2023-05-14T01:57:53.560Z,14.60
2023-05-14T02:00:22.820Z,16.65
2023-05-14T02:02:49.658Z,17.52
2023-05-14T02:05:16.401Z,19.02
2023-05-14T02:07:43.352Z,17.38
2023-05-14T02:10:10.646Z,16.50
2023-05-14T02:12:37.638Z,15.15
2023-05-14T02:15:04.795Z,16.70
2023-05-14T02:17:31.472Z,18.77
2023-05-14T02:19:58.378Z,19.33
2023-05-14T02:22:25.160Z,16.48
2023-05-14T02:24:52.005Z,16.10
2023-05-14T02:27:18.972Z,19.15
2023-05-14T02:29:45.772Z,16.98
2023-05-14T02:32:12.541Z,22.65
2023-05-14T02:34:39.336Z,15.98
2023-05-14T02:37:06.119Z,17.50
2023-05-14T02:39:32.880Z,18.85
2023-05-14T02:41:59.618Z,15.65
2023-05-14T02:44:26.382Z,17.80
2023-05-14T02:46:53.574Z,20.30
2023-05-14T02:49:20.337Z,19.02
2023-05-14T02:51:47.053Z,17.70
2023-05-14T02:54:13.762Z,19.17
2023-05-14T02:56:40.443Z,16.90
2023-05-14T02:59:07.181Z,19.92
2023-05-14T03:01:34.472Z,18.08
2023-05-14T03:04:01.529Z,19.15
2023-05-14T03:06:28.266Z,18.42
2023-05-14T03:08:54.996Z,16.23
2023-05-14T03:11:21.754Z,16.27
2023-05-14T03:13:48.504Z,14.38
2023-05-14T03:16:15.491Z,15.13
2023-05-14T03:18:42.307Z,17.58
2023-05-14T03:21:09.259Z,17.13
2023-05-14T03:23:36.299Z,18.45
2023-05-14T03:26:03.817Z,17.40
2023-05-14T03:28:30.916Z,19.02
2023-05-14T03:30:57.763Z,18.35
2023-05-14T03:33:24.553Z,18.13
2023-05-14T03:35:51.907Z,18.25
2023-05-14T03:38:18.693Z,17.30
2023-05-14T03:40:45.558Z,16.58
2023-05-14T03:43:12.244Z,17.20
2023-05-14T03:45:39.251Z,19.00
2023-05-14T03:48:06.456Z,18.23
2023-05-14T03:50:33.235Z,20.92
2023-05-14T03:52:59.906Z,20.42
2023-05-14T03:55:26.564Z,18.30
2023-05-14T03:57:53.282Z,20.30
2023-05-14T04:00:20.218Z,18.05
2023-05-14T04:02:46.989Z,16.17
2023-05-14T04:05:13.814Z,16.25
2023-05-14T04:07:40.602Z,16.02
2023-05-14T04:10:07.856Z,18.13
2023-05-14T04:12:34.688Z,18.02
2023-05-14T04:15:01.404Z,20.50
2023-05-14T04:17:28.436Z,18.77
2023-05-14T04:19:55.212Z,18.70
2023-05-14T04:22:22.037Z,20.83
2023-05-14T04:24:48.794Z,18.65
2023-05-14T04:27:23.678Z,15.70
2023-05-14T04:29:50.804Z,18.52
2023-05-14T04:32:18.226Z,17.55
2023-05-14T04:34:45.085Z,18.00
2023-05-14T04:37:11.869Z,17.95
2023-05-14T04:39:38.865Z,16.75
2023-05-14T04:42:06.827Z,21.85
2023-05-14T04:44:35.477Z,20.33
2023-05-14T04:47:02.735Z,18.77
2023-05-14T04:49:29.716Z,18.27
2023-05-14T04:51:56.440Z,16.02
2023-05-14T04:54:23.225Z,17.52
2023-05-14T04:56:50.778Z,16.77
2023-05-14T04:59:17.919Z,17.23
2023-05-14T05:01:45.938Z,18.27
2023-05-14T05:04:13.047Z,16.27
2023-05-14T05:06:40.034Z,17.55
2023-05-14T05:09:06.927Z,19.60
2023-05-14T05:11:33.646Z,15.80
2023-05-14T05:14:00.588Z,14.02
2023-05-14T05:16:27.473Z,17.05
2023-05-14T05:18:54.346Z,22.30
2023-05-14T05:21:21.194Z,20.27
2023-05-14T05:23:47.924Z,13.90
2023-05-14T05:26:14.676Z,16.48
2023-05-14T05:28:41.426Z,13.25
2023-05-14T05:31:08.343Z,16.40
2023-05-14T05:33:35.851Z,16.80
2023-05-14T05:36:02.830Z,17.40
2023-05-14T05:38:29.550Z,15.48
2023-05-14T05:40:56.261Z,14.30
2023-05-14T05:43:23.207Z,15.50
2023-05-14T05:45:49.923Z,16.00
2023-05-14T05:48:16.971Z,13.40
2023-05-14T05:50:47.552Z,17.73
2023-05-14T05:53:16.445Z,15.43
2023-05-14T05:55:43.205Z,13.88
2023-05-14T05:58:10.195Z,15.15
2023-05-14T06:00:37.034Z,14.25
2023-05-14T06:03:03.830Z,13.15
2023-05-14T06:05:30.820Z,12.55
2023-05-14T06:07:57.604Z,14.10
2023-05-14T06:10:24.595Z,13.45
2023-05-14T06:12:51.415Z,11.88
2023-05-14T06:15:19.074Z,14.40
2023-05-14T06:17:46.151Z,13.85
2023-05-14T06:20:13.151Z,13.38
2023-05-14T06:22:39.943Z,9.80
2023-05-14T06:25:07.166Z,11.68
2023-05-14T06:27:33.889Z,12.25
2023-05-14T06:30:01.360Z,13.52
2023-05-14T06:32:28.211Z,12.02
2023-05-14T06:34:54.924Z,14.20
2023-05-14T06:37:21.691Z,12.27
2023-05-14T06:39:50.466Z,14.70
2023-05-14T06:42:17.661Z,14.32
2023-05-14T06:44:45.272Z,13.57
2023-05-14T06:47:12.021Z,14.23
2023-05-14T06:49:39.205Z,14.20
2023-05-14T06:52:06.450Z,13.55
2023-05-14T06:54:33.217Z,13.30
2023-05-14T06:56:59.905Z,13.32
2023-05-14T06:59:26.814Z,11.80
2023-05-14T07:01:53.630Z,12.50
2023-05-14T07:04:20.668Z,14.48
2023-05-14T07:06:47.492Z,13.75
2023-05-14T07:09:16.098Z,12.45
2023-05-14T07:11:42.794Z,13.30
2023-05-14T07:14:09.467Z,13.80
2023-05-14T07:16:36.624Z,14.18
2023-05-14T07:19:03.479Z,11.23
2023-05-14T07:21:30.363Z,10.02
2023-05-14T07:23:57.038Z,17.08
2023-05-14T07:26:24.573Z,12.98
2023-05-14T07:28:51.397Z,11.88
2023-05-14T07:31:18.243Z,14.88
2023-05-14T07:33:45.207Z,13.90
2023-05-14T07:36:12.121Z,12.30
2023-05-14T07:38:38.926Z,15.45
2023-05-14T07:41:05.792Z,13.45
2023-05-14T07:43:32.712Z,12.27
2023-05-14T07:45:59.540Z,14.07
2023-05-14T07:48:26.374Z,11.50
2023-05-14T07:50:53.833Z,15.25
2023-05-14T07:53:20.667Z,16.10
2023-05-14T07:55:49.042Z,13.30
2023-05-14T07:58:16.271Z,16.40
2023-05-14T08:00:43.065Z,14.32
2023-05-14T08:03:09.869Z,13.20
2023-05-14T08:05:36.953Z,17.45
2023-05-14T08:08:03.862Z,14.70
2023-05-14T08:10:30.915Z,16.02
2023-05-14T08:12:57.831Z,12.15
2023-05-14T08:15:27.048Z,11.95
2023-05-14T08:17:54.887Z,14.38
2023-05-14T08:20:22.289Z,13.63
2023-05-14T08:22:49.219Z,15.15
2023-05-14T08:25:16.156Z,12.00
2023-05-14T08:27:42.952Z,11.57
2023-05-14T08:30:10.044Z,13.07
2023-05-14T08:32:38.566Z,13.43
2023-05-14T08:35:05.979Z,13.27
2023-05-14T08:37:32.750Z,13.18
2023-05-14T08:39:59.495Z,11.18
2023-05-14T08:42:28.595Z,11.27
2023-05-14T08:45:02.962Z,11.82
2023-05-14T08:47:31.061Z,15.05
2023-05-14T08:50:08.360Z,10.13
2023-05-14T08:52:35.994Z,11.85
2023-05-14T08:55:06.621Z,9.80
2023-05-14T08:57:34.210Z,12.07
2023-05-14T09:00:01.611Z,8.73
2023-05-14T09:02:30.391Z,11.05
2023-05-14T09:04:59.330Z,10.45
2023-05-14T09:07:26.476Z,7.78
2023-05-14T09:09:53.987Z,8.80
2023-05-14T09:12:22.028Z,9.10
2023-05-14T09:14:50.049Z,10.75
2023-05-14T09:17:18.020Z,14.88
2023-05-14T09:19:49.480Z,10.43
2023-05-14T09:22:17.660Z,12.23
2023-05-14T09:24:44.780Z,12.35
2023-05-14T09:27:21.378Z,10.15
2023-05-14T09:29:48.616Z,9.70
2023-05-14T09:32:15.445Z,9.32
2023-05-14T09:34:42.360Z,11.68
2023-05-14T09:37:10.222Z,8.90
2023-05-14T09:39:37.882Z,11.27
2023-05-14T09:42:05.065Z,13.60
2023-05-14T09:44:32.081Z,12.35
2023-05-14T09:46:58.989Z,9.32
2023-05-14T09:49:25.983Z,14.18
2023-05-14T09:51:52.735Z,11.88
2023-05-14T09:54:19.570Z,9.10
2023-05-14T09:56:46.379Z,10.35
2023-05-14T09:59:13.193Z,8.93
2023-05-14T10:01:43.004Z,11.52
2023-05-14T10:04:11.172Z,12.57
2023-05-14T10:06:40.110Z,12.50
2023-05-14T10:09:15.431Z,8.52
2023-05-14T10:11:45.381Z,10.63
2023-05-14T10:14:20.752Z,8.90
2023-05-14T10:16:50.703Z,10.60
2023-05-14T10:19:20.041Z,9.50
2023-05-14T10:21:53.503Z,9.00
2023-05-14T10:24:20.860Z,10.63
2023-05-14T10:26:48.672Z,9.80
2023-05-14T10:29:15.604Z,14.27
2023-05-14T10:31:49.625Z,9.40
2023-05-14T10:34:33.339Z,8.57
2023-05-14T10:37:02.196Z,8.32
2023-05-14T10:39:44.723Z,9.90
2023-05-14T10:42:21.834Z,10.65
2023-05-14T10:44:54.081Z,12.77
2023-05-14T10:47:21.373Z,9.52
2023-05-14T10:49:49.153Z,10.15
2023-05-14T10:52:19.699Z,9.02
2023-05-14T10:55:02.920Z,10.85
2023-05-14T10:57:32.511Z,9.18
2023-05-14T11:00:03.213Z,10.93
2023-05-14T11:02:36.975Z,11.32
2023-05-14T11:05:11.631Z,10.10
2023-05-14T11:07:49.152Z,11.77
2023-05-14T11:10:18.426Z,10.73
2023-05-14T11:12:47.041Z,7.63
2023-05-14T11:15:16.420Z,8.68
2023-05-14T11:17:45.001Z,8.77
2023-05-14T11:20:12.641Z,9.88
2023-05-14T11:22:41.047Z,10.70
2023-05-14T11:25:08.854Z,8.43
2023-05-14T11:27:38.186Z,8.85
2023-05-14T11:30:05.466Z,9.47
2023-05-14T11:32:33.062Z,10.50
2023-05-14T11:34:59.885Z,9.70
2023-05-14T11:37:26.571Z,7.28
2023-05-14T11:39:55.041Z,11.88
2023-05-14T11:42:22.447Z,9.32
2023-05-14T11:44:51.914Z,7.07
2023-05-14T11:47:21.267Z,9.23
2023-05-14T11:49:48.919Z,10.77
2023-05-14T11:52:16.500Z,10.00
2023-05-14T11:54:44.282Z,9.80
2023-05-14T11:57:16.203Z,11.23
2023-05-14T11:59:43.168Z,10.10
2023-05-14T12:02:18.172Z,8.98
2023-05-14T12:04:49.561Z,8.75
2023-05-14T12:07:16.791Z,10.80
2023-05-14T12:09:49.671Z,9.35
2023-05-14T12:12:21.770Z,9.88
2023-05-14T12:14:49.758Z,8.50
2023-05-14T12:17:21.629Z,10.93
2023-05-14T12:19:50.669Z,8.68
2023-05-14T12:22:19.686Z,9.57
2023-05-14T12:24:57.777Z,11.25
2023-05-14T12:27:29.659Z,10.60
2023-05-14T12:30:20.618Z,10.93
2023-05-14T12:32:51.858Z,10.32
2023-05-14T12:35:19.046Z,11.93
2023-05-14T12:37:46.014Z,7.78
2023-05-14T12:40:13.182Z,10.40
2023-05-14T12:42:41.340Z,9.55
2023-05-14T12:45:08.629Z,10.20
2023-05-14T12:47:36.828Z,11.20
2023-05-14T12:50:04.359Z,8.10
2023-05-14T12:55:01.466Z,7.53
2023-05-14T12:57:30.040Z,8.38
2023-05-14T12:59:57.508Z,8.90
2023-05-14T13:02:24.227Z,10.20
2023-05-14T13:04:50.964Z,8.30
2023-05-14T13:07:17.755Z,9.20
2023-05-14T13:09:44.573Z,8.57
2023-05-14T13:12:11.309Z,7.65
2023-05-14T13:14:38.075Z,10.43
2023-05-14T13:17:05.505Z,8.13
2023-05-14T13:19:32.392Z,8.30
2023-05-14T13:21:59.106Z,9.00
2023-05-14T13:24:25.928Z,6.97
2023-05-14T13:26:52.747Z,7.10
2023-05-14T13:29:19.402Z,9.57
2023-05-14T13:31:46.202Z,11.80
2023-05-14T13:34:13.170Z,9.90
2023-05-14T13:36:40.734Z,8.27
2023-05-14T13:39:07.689Z,6.80
2023-05-14T13:41:37.959Z,9.23
2023-05-14T13:44:04.946Z,9.88
2023-05-14T13:46:31.771Z,9.65
2023-05-14T13:48:58.605Z,7.75
2023-05-14T13:51:25.508Z,9.27
2023-05-14T13:56:19.217Z,7.82
2023-05-14T13:58:46.057Z,10.27
2023-05-14T14:01:12.998Z,10.93
2023-05-14T14:03:39.717Z,7.57
2023-05-14T14:06:06.560Z,8.40
2023-05-14T14:08:33.271Z,11.85
2023-05-14T14:11:00.280Z,9.63
2023-05-14T14:13:27.799Z,9.20
2023-05-14T14:15:54.647Z,9.60
2023-05-14T14:18:21.524Z,6.40
2023-05-14T14:20:48.329Z,10.02
2023-05-14T14:23:15.055Z,9.50
2023-05-14T14:25:41.850Z,7.78
2023-05-14T14:28:08.597Z,8.32
2023-05-14T14:30:35.437Z,7.88
2023-05-14T14:33:03.503Z,7.90
2023-05-14T14:35:30.855Z,12.65
2023-05-14T14:37:57.579Z,7.25
2023-05-14T14:40:24.563Z,8.23
2023-05-14T14:42:51.307Z,7.32
2023-05-14T14:45:18.437Z,8.35
2023-05-14T14:47:46.554Z,7.95
2023-05-14T14:50:13.978Z,12.38
2023-05-14T14:52:45.437Z,7.60
2023-05-14T14:55:12.996Z,9.20
2023-05-14T14:57:39.903Z,7.13
2023-05-14T15:00:09.295Z,9.63
2023-05-14T15:02:38.369Z,6.53
2023-05-14T15:05:06.094Z,6.88
2023-05-14T15:07:33.015Z,8.70
2023-05-14T15:09:59.917Z,8.10
2023-05-14T15:12:26.700Z,9.10
2023-05-14T15:14:53.442Z,7.25
2023-05-14T15:17:20.386Z,9.70
2023-05-14T15:19:47.556Z,8.45
2023-05-14T15:22:14.410Z,7.03
2023-05-14T15:24:41.145Z,7.32
2023-05-14T15:27:07.891Z,7.97
2023-05-14T15:29:34.654Z,7.55
2023-05-14T15:32:02.283Z,9.35
2023-05-14T15:34:29.032Z,7.13
2023-05-14T15:36:55.732Z,7.53
2023-05-14T15:39:22.493Z,9.50
2023-05-14T15:41:49.241Z,8.73
2023-05-14T15:44:16.084Z,9.48
2023-05-14T15:46:42.905Z,6.40
2023-05-14T15:49:09.733Z,6.85
2023-05-14T15:51:36.560Z,6.43
2023-05-14T15:54:03.545Z,7.57
2023-05-14T15:56:31.274Z,9.85
2023-05-14T15:58:58.062Z,13.68
2023-05-14T16:01:24.810Z,5.65
2023-05-14T16:03:52.641Z,9.43
2023-05-14T16:06:19.660Z,8.45
2023-05-14T16:08:46.472Z,8.98
2023-05-14T16:11:13.175Z,8.65
2023-05-14T16:13:41.543Z,10.75
2023-05-14T16:16:08.656Z,9.48
2023-05-14T16:18:35.550Z,9.70
2023-05-14T16:21:02.415Z,10.07
2023-05-14T16:23:29.229Z,8.15
2023-05-14T16:25:56.006Z,7.30
2023-05-14T16:28:23.005Z,8.98
2023-05-14T16:30:49.925Z,8.98
2023-05-14T16:33:16.646Z,8.10
2023-05-14T16:35:43.458Z,8.73
2023-05-14T16:38:10.314Z,4.68
2023-05-14T16:40:37.120Z,8.88
2023-05-14T16:43:03.988Z,7.15
2023-05-14T16:45:32.703Z,9.80
2023-05-14T16:48:01.025Z,7.60
2023-05-14T16:50:28.091Z,7.88
2023-05-14T16:52:54.865Z,7.47
2023-05-14T16:55:21.833Z,7.93
2023-05-14T16:57:48.883Z,7.18
2023-05-14T17:00:16.153Z,10.00
2023-05-14T17:02:42.923Z,10.23
2023-05-14T17:05:09.957Z,6.63
2023-05-14T17:07:38.504Z,7.65
2023-05-14T17:10:06.915Z,9.63
2023-05-14T17:12:33.773Z,8.18
2023-05-14T17:15:02.935Z,10.65
2023-05-14T17:17:32.640Z,12.05
2023-05-14T17:20:00.194Z,9.18
2023-05-14T17:22:27.253Z,13.10
2023-05-14T17:24:54.312Z,13.13
2023-05-14T17:27:21.023Z,12.18
2023-05-14T17:29:50.983Z,9.23
2023-05-14T17:32:18.471Z,10.15
2023-05-14T17:34:45.319Z,14.50
2023-05-14T17:37:12.182Z,11.07
2023-05-14T17:39:38.945Z,9.60
2023-05-14T17:42:06.382Z,12.48
2023-05-14T17:44:33.097Z,11.25
2023-05-14T17:47:00.467Z,8.90
2023-05-14T17:49:27.320Z,7.30
2023-05-14T17:51:54.140Z,12.02
2023-05-14T17:54:20.883Z,12.15
2023-05-14T17:56:48.206Z,11.65
2023-05-14T17:59:14.903Z,16.48
2023-05-14T18:01:41.707Z,11.80
2023-05-14T18:04:08.586Z,11.23
2023-05-14T18:06:35.481Z,13.88
2023-05-14T18:09:02.220Z,15.10
2023-05-14T18:11:35.564Z,11.68
2023-05-14T18:14:02.479Z,16.45
2023-05-14T18:16:29.535Z,9.65
2023-05-14T18:18:56.352Z,13.05
2023-05-14T18:21:23.314Z,12.30
2023-05-14T18:23:50.076Z,13.65
2023-05-14T18:26:16.901Z,16.55
2023-05-14T18:28:43.745Z,10.55
2023-05-14T18:31:11.490Z,12.82
2023-05-14T18:33:38.345Z,12.50
2023-05-14T18:36:05.404Z,17.25
2023-05-14T18:38:32.222Z,13.48
2023-05-14T18:40:59.012Z,16.00
2023-05-14T18:43:26.209Z,14.18
2023-05-14T18:45:53.693Z,13.55
2023-05-14T18:48:20.732Z,15.13
2023-05-14T18:50:47.510Z,11.77
2023-05-14T18:53:14.573Z,14.63
2023-05-14T18:55:41.383Z,12.57
2023-05-14T18:58:08.385Z,13.18
2023-05-14T19:00:35.201Z,9.40
2023-05-14T19:03:02.077Z,13.23
2023-05-14T19:05:28.979Z,12.73
2023-05-14T19:07:56.950Z,12.82
2023-05-14T19:10:23.744Z,12.68
2023-05-14T19:12:50.649Z,10.40
2023-05-14T19:15:17.512Z,11.73
2023-05-14T19:17:44.868Z,12.85
2023-05-14T19:20:12.435Z,10.10
2023-05-14T19:22:39.169Z,12.18
2023-05-14T19:25:07.868Z,13.05
2023-05-14T19:27:37.210Z,15.13
2023-05-14T19:30:04.510Z,11.52
2023-05-14T19:32:31.388Z,10.80
2023-05-14T19:34:58.148Z,12.30
2023-05-14T19:37:24.934Z,11.52
2023-05-14T19:39:51.687Z,11.25
2023-05-14T19:42:18.537Z,13.68
2023-05-14T19:44:45.437Z,11.20
2023-05-14T19:47:12.460Z,11.35
2023-05-14T19:49:39.222Z,14.57
2023-05-14T19:52:06.344Z,12.35
2023-05-14T19:54:33.060Z,14.48
2023-05-14T19:56:59.785Z,11.30
2023-05-14T19:59:26.595Z,15.00
2023-05-14T20:01:54.701Z,12.73
2023-05-14T20:04:21.543Z,10.52
2023-05-14T20:06:49.296Z,13.27
2023-05-14T20:09:16.134Z,13.48
2023-05-14T20:11:42.934Z,11.43
2023-05-14T20:14:09.657Z,12.98
2023-05-14T20:16:37.047Z,10.20
2023-05-14T20:19:04.052Z,14.43
2023-05-14T20:21:31.887Z,9.70
2023-05-14T20:23:58.664Z,11.32
2023-05-14T20:26:25.804Z,9.75
2023-05-14T20:28:53.567Z,9.57
2023-05-14T20:31:21.449Z,11.02
2023-05-14T20:33:48.974Z,10.75
2023-05-14T20:36:16.028Z,10.50
2023-05-14T20:38:42.823Z,10.40
2023-05-14T20:41:09.510Z,12.02
2023-05-14T20:43:36.384Z,10.20
2023-05-14T20:46:03.157Z,10.38
2023-05-14T20:48:30.017Z,11.68
2023-05-14T20:50:56.818Z,10.77
2023-05-14T20:53:25.268Z,14.40
2023-05-14T20:55:52.055Z,15.13
2023-05-14T20:58:18.835Z,10.52
2023-05-14T21:00:45.695Z,10.10
2023-05-14T21:03:12.463Z,11.27
2023-05-14T21:05:41.497Z,10.30
2023-05-14T21:08:08.517Z,13.20
2023-05-14T21:10:35.400Z,11.15
2023-05-14T21:13:02.201Z,11.32
2023-05-14T21:15:30.625Z,12.18
2023-05-14T21:17:57.376Z,13.88
2023-05-14T21:20:24.161Z,11.88
2023-05-14T21:22:50.860Z,11.68
2023-05-14T21:25:17.738Z,13.88
2023-05-14T21:27:44.512Z,13.40
2023-05-14T21:30:11.871Z,9.82
2023-05-14T21:32:38.816Z,12.30
2023-05-14T21:35:05.996Z,10.90
2023-05-14T21:37:33.168Z,12.18
2023-05-14T21:39:59.906Z,12.10
2023-05-14T21:42:26.607Z,13.45
2023-05-14T21:44:53.324Z,11.88
2023-05-14T21:47:21.054Z,12.23
2023-05-14T21:49:47.819Z,12.30
2023-05-14T21:52:14.592Z,9.32
2023-05-14T21:54:41.288Z,11.15
2023-05-14T21:57:08.024Z,11.48
2023-05-14T21:59:36.251Z,9.55
2023-05-14T22:02:07.443Z,14.13
2023-05-14T22:04:35.367Z,10.73
2023-05-14T22:07:02.360Z,9.38
2023-05-14T22:09:30.364Z,12.45
2023-05-14T22:11:58.196Z,16.30
2023-05-14T22:14:26.460Z,13.00
2023-05-14T22:16:53.268Z,13.35
2023-05-14T22:19:20.261Z,13.43
2023-05-14T22:21:47.056Z,11.23
2023-05-14T22:24:13.761Z,11.02
2023-05-14T22:26:40.522Z,10.27
2023-05-14T22:29:07.259Z,11.52
2023-05-14T22:31:34.104Z,11.98
2023-05-14T22:34:00.803Z,11.10
2023-05-14T22:36:27.543Z,12.07
2023-05-14T22:38:54.271Z,10.93
2023-05-14T22:41:22.153Z,13.57
2023-05-14T22:43:49.441Z,13.43
2023-05-14T22:46:16.462Z,12.02
2023-05-14T22:48:43.314Z,11.40
2023-05-14T22:51:10.041Z,11.50
2023-05-14T22:53:36.789Z,12.18
2023-05-14T22:56:03.769Z,12.98
2023-05-14T22:58:30.760Z,13.70
2023-05-14T23:00:57.730Z,11.63
2023-05-14T23:03:24.475Z,15.52
2023-05-14T23:05:52.130Z,15.23
2023-05-14T23:08:18.875Z,16.25
2023-05-14T23:10:45.658Z,17.25
2023-05-14T23:13:12.607Z,12.50
2023-05-14T23:15:39.341Z,14.82
2023-05-14T23:18:07.676Z,17.40
2023-05-14T23:20:34.503Z,15.20
2023-05-14T23:23:01.229Z,19.88
2023-05-14T23:25:27.964Z,15.23
2023-05-14T23:27:54.744Z,17.15
2023-05-14T23:30:21.474Z,15.98
2023-05-14T23:32:48.170Z,15.10
2023-05-14T23:35:15.075Z,17.20
2023-05-14T23:37:47.240Z,16.42
2023-05-14T23:40:14.277Z,18.67
2023-05-14T23:42:41.111Z,15.88
2023-05-14T23:45:08.471Z,17.88
2023-05-14T23:47:35.596Z,16.98
2023-05-14T23:50:02.978Z,16.63
2023-05-14T23:52:29.645Z,16.00
2023-05-14T23:54:56.334Z,18.70
2023-05-14T23:57:23.158Z,21.58
2023-05-14T23:59:49.881Z,22.20
